Time;durP1;ratioP1;P1;durP2;ratioP2;P2;SDS_P1;SDS_P2;PMS_P1;PMS_P2;Temp;Humidity;BMP_temperature;BMP_pressure;BME280_temperature;BME280_humidity;BME280_pressure;Samples;Min_cycle;Max_cycle;Signal;HPM_P1;HPM_P2
2023/03/24 05:48:42;;;;;;;;;1.00;1.00;;;;;;;;5754105;22;49337;-65
2023/03/24 05:51:07;;;;;;;;;1.50;1.00;;;;;;;;5075848;28;49670;-68
2023/03/24 05:53:33;;;;;;;;;0.25;0.25;;;;;;;;5055664;28;49644;-67
2023/03/24 05:55:58;;;;;;;;;2.50;1.25;;;;;;;;5071115;27;49958;-70
2023/03/24 05:58:23;;;;;;;;;3.50;1.00;;;;;;;;5063325;28;52368;-71
2023/03/24 06:00:48;;;;;;;;;1.00;1.00;;;;;;;;5091298;28;49376;-70
2023/03/24 06:03:15;;;;;;;;;2.75;1.00;;;;;;;;5071040;28;49524;-74
2023/03/24 06:05:41;;;;;;;;;2.75;1.00;;;;;;;;5088257;28;49583;-71
2023/03/24 06:08:08;;;;;;;;;1.75;1.75;;;;;;;;5080698;28;50693;-66
2023/03/24 06:10:35;;;;;;;;;4.00;1.00;;;;;;;;5074738;28;49741;-66
2023/03/24 06:13:00;;;;;;;;;3.50;2.25;;;;;;;;5054510;28;50043;-68
2023/03/24 06:15:26;;;;;;;;;1.00;1.00;;;;;;;;5076925;28;49794;-66
2023/03/24 06:17:53;;;;;;;;;2.00;0.50;;;;;;;;5081565;28;49978;-71
2023/03/24 06:20:18;;;;;;;;;3.50;1.00;;;;;;;;5073657;28;49587;-70
2023/03/24 06:22:46;;;;;;;;;1.75;1.75;;;;;;;;5072492;28;51566;-65
2023/03/24 06:25:12;;;;;;;;;2.25;1.00;;;;;;;;5073553;28;49988;-67
2023/03/24 06:27:41;;;;;;;;;1.25;1.00;;;;;;;;5056930;28;51639;-74
2023/03/24 06:30:07;;;;;;;;;0.75;0.75;;;;;;;;5078740;27;51413;-71
2023/03/24 06:32:33;;;;;;;;;0.00;0.00;;;;;;;;5073018;28;49908;-84
2023/03/24 06:34:58;;;;;;;;;1.50;1.00;;;;;;;;5073427;28;49922;-73
2023/03/24 06:37:23;;;;;;;;;1.00;0.00;;;;;;;;5072868;28;50792;-75
2023/03/24 06:39:49;;;;;;;;;3.50;1.75;;;;;;;;5072913;28;49660;-72
2023/03/24 06:42:14;;;;;;;;;4.50;0.75;;;;;;;;5072977;28;49764;-74
2023/03/24 06:44:40;;;;;;;;;2.00;2.00;;;;;;;;5073204;28;49618;-78
2023/03/24 06:47:05;;;;;;;;;3.50;1.00;;;;;;;;5074068;28;51158;-79
2023/03/24 06:49:33;;;;;;;;;2.25;2.25;;;;;;;;5053713;28;49734;-76
2023/03/24 06:51:58;;;;;;;;;1.00;1.00;;;;;;;;5062292;28;49750;-76
2023/03/24 06:54:24;;;;;;;;;0.75;0.75;;;;;;;;5053639;28;50562;-81
2023/03/24 06:56:49;;;;;;;;;3.25;1.75;;;;;;;;5052411;28;49825;-75
2023/03/24 06:59:16;;;;;;;;;2.00;0.00;;;;;;;;5052564;28;49939;-76
2023/03/24 07:01:41;;;;;;;;;0.75;0.75;;;;;;;;5054421;28;49825;-75
2023/03/24 07:04:07;;;;;;;;;5.25;2.00;;;;;;;;5052274;28;49946;-75
2023/03/24 07:06:33;;;;;;;;;1.25;1.25;;;;;;;;5051422;28;51251;-72
2023/03/24 07:08:58;;;;;;;;;2.00;2.00;;;;;;;;5050631;28;49706;-71
2023/03/24 07:11:24;;;;;;;;;1.25;1.25;;;;;;;;5051877;28;50108;-71
2023/03/24 07:13:49;;;;;;;;;2.75;2.00;;;;;;;;5052174;28;49945;-72
2023/03/24 07:16:14;;;;;;;;;0.75;0.75;;;;;;;;5052074;28;51077;-73
2023/03/24 07:18:40;;;;;;;;;1.50;0.25;;;;;;;;5050470;28;49878;-72
2023/03/24 07:21:06;;;;;;;;;1.00;1.00;;;;;;;;5052350;28;49818;-73
2023/03/24 07:23:31;;;;;;;;;1.00;1.00;;;;;;;;5052545;28;49820;-73
2023/03/24 07:25:57;;;;;;;;;2.00;2.00;;;;;;;;5052011;28;49706;-72
2023/03/24 07:28:22;;;;;;;;;3.50;3.50;;;;;;;;5051920;28;49779;-73
2023/03/24 07:30:47;;;;;;;;;3.00;2.00;;;;;;;;5052036;28;49887;-73
2023/03/24 07:33:13;;;;;;;;;1.50;1.50;;;;;;;;5050408;28;49681;-72
2023/03/24 07:35:38;;;;;;;;;1.50;1.00;;;;;;;;5050267;28;51063;-74
2023/03/24 07:38:04;;;;;;;;;2.00;0.25;;;;;;;;5051698;28;49880;-74
2023/03/24 07:40:29;;;;;;;;;1.00;1.00;;;;;;;;5051842;28;49591;-74
2023/03/24 07:42:58;;;;;;;;;2.50;1.50;;;;;;;;5052101;28;49875;-74
2023/03/24 07:45:23;;;;;;;;;3.25;1.00;;;;;;;;5051865;28;49882;-72
2023/03/24 07:47:48;;;;;;;;;1.25;0.50;;;;;;;;5051459;28;49701;-75
2023/03/24 07:50:14;;;;;;;;;0.50;0.50;;;;;;;;5071788;28;49663;-72
2023/03/24 07:52:40;;;;;;;;;4.00;1.25;;;;;;;;5072117;28;49927;-72
2023/03/24 07:55:07;;;;;;;;;5.50;2.00;;;;;;;;5071651;28;50926;-72
2023/03/24 07:57:35;;;;;;;;;2.00;1.00;;;;;;;;5071492;28;49723;-73
2023/03/24 08:00:01;;;;;;;;;1.00;1.00;;;;;;;;5071758;28;49916;-72
2023/03/24 08:02:26;;;;;;;;;2.50;1.25;;;;;;;;5071503;28;49850;-72
2023/03/24 08:04:55;;;;;;;;;3.00;2.00;;;;;;;;5071422;28;49782;-75
2023/03/24 08:07:20;;;;;;;;;3.50;1.00;;;;;;;;5071036;28;49808;-72
2023/03/24 08:09:45;;;;;;;;;3.00;2.00;;;;;;;;5074906;28;49735;-72
2023/03/24 08:12:10;;;;;;;;;3.00;3.00;;;;;;;;5068925;28;50024;-75
2023/03/24 08:14:36;;;;;;;;;1.00;1.00;;;;;;;;5072194;28;50617;-75
2023/03/24 08:17:01;;;;;;;;;3.25;1.00;;;;;;;;5072757;28;49727;-75
2023/03/24 08:19:26;;;;;;;;;2.50;1.00;;;;;;;;5078703;28;49710;-72
2023/03/24 08:21:51;;;;;;;;;2.50;2.50;;;;;;;;5056614;28;49719;-71
2023/03/24 08:24:18;;;;;;;;;1.50;1.25;;;;;;;;5066261;28;50352;-74
2023/03/24 08:26:45;;;;;;;;;1.00;1.00;;;;;;;;5071688;28;49753;-72
2023/03/24 08:29:10;;;;;;;;;3.00;2.00;;;;;;;;5081084;28;50088;-77
2023/03/24 08:31:36;;;;;;;;;0.00;0.00;;;;;;;;5088912;28;49380;-75
2023/03/24 08:34:01;;;;;;;;;3.50;2.00;;;;;;;;5071952;28;50390;-74
2023/03/24 08:36:27;;;;;;;;;4.50;1.00;;;;;;;;5079982;28;49683;-75
2023/03/24 08:38:54;;;;;;;;;4.00;0.00;;;;;;;;5075661;28;49994;-75
2023/03/24 08:41:19;;;;;;;;;2.25;2.25;;;;;;;;5071875;28;49999;-77
2023/03/24 08:43:45;;;;;;;;;3.25;2.00;;;;;;;;5070484;28;50614;-79
2023/03/24 08:46:10;;;;;;;;;3.00;1.00;;;;;;;;5071354;28;49766;-76
2023/03/24 08:48:38;;;;;;;;;1.00;1.00;;;;;;;;5071523;28;49932;-75
2023/03/24 08:51:13;;;;;;;;;2.00;1.50;;;;;;;;5075603;28;49764;-81
2023/03/24 08:53:39;;;;;;;;;2.00;2.00;;;;;;;;5047273;28;52441;-74
2023/03/24 08:56:04;;;;;;;;;2.25;2.00;;;;;;;;5070941;28;49807;-73
2023/03/24 08:58:30;;;;;;;;;1.75;1.75;;;;;;;;5070552;28;49888;-76
2023/03/24 09:00:56;;;;;;;;;4.50;1.50;;;;;;;;5070182;28;50066;-73
2023/03/24 09:03:21;;;;;;;;;2.75;1.75;;;;;;;;5068369;28;50965;-73
2023/03/24 09:05:47;;;;;;;;;2.25;1.50;;;;;;;;5077783;28;50108;-73
2023/03/24 09:08:17;;;;;;;;;1.75;0.75;;;;;;;;5064743;28;49825;-78
2023/03/24 09:10:46;;;;;;;;;2.00;1.50;;;;;;;;5052286;28;49696;-77
2023/03/24 09:13:11;;;;;;;;;1.25;1.25;;;;;;;;5072017;28;50904;-76
2023/03/24 09:15:36;;;;;;;;;2.00;0.50;;;;;;;;5072818;28;49498;-77
2023/03/24 09:18:02;;;;;;;;;3.00;0.75;;;;;;;;5070373;28;49568;-79
2023/03/24 09:20:27;;;;;;;;;2.00;1.00;;;;;;;;5071754;28;49830;-76
2023/03/24 09:22:52;;;;;;;;;2.00;2.00;;;;;;;;5070050;28;50723;-79
2023/03/24 09:25:19;;;;;;;;;1.50;1.50;;;;;;;;5053771;28;49806;-80
2023/03/24 09:27:45;;;;;;;;;0.75;0.75;;;;;;;;5051825;28;49835;-77
2023/03/24 09:30:11;;;;;;;;;1.00;1.00;;;;;;;;5071430;28;49783;-76
2023/03/24 09:32:37;;;;;;;;;3.25;1.00;;;;;;;;5069492;28;52263;-76
2023/03/24 09:35:02;;;;;;;;;3.25;2.00;;;;;;;;5069396;28;49851;-74
2023/03/24 09:37:32;;;;;;;;;2.00;2.00;;;;;;;;5069577;28;49984;-79
2023/03/24 09:39:58;;;;;;;;;2.25;1.25;;;;;;;;5069472;28;49796;-75
2023/03/24 09:42:25;;;;;;;;;1.50;1.50;;;;;;;;5069821;28;51391;-74
2023/03/24 09:44:55;;;;;;;;;1.00;1.00;;;;;;;;5070331;28;49670;-77
2023/03/24 09:47:28;;;;;;;;;0.00;0.00;;;;;;;;5073031;28;49730;-82
2023/03/24 09:49:56;;;;;;;;;1.00;1.00;;;;;;;;5071593;28;49687;-76
2023/03/24 09:52:29;;;;;;;;;0.75;0.00;;;;;;;;5070419;28;49858;-82
2023/03/24 09:54:57;;;;;;;;;1.25;1.25;;;;;;;;5051159;28;49940;-79
2023/03/24 09:57:25;;;;;;;;;1.00;1.00;;;;;;;;5069865;28;49597;-78
2023/03/24 09:59:50;;;;;;;;;3.50;1.50;;;;;;;;5069729;28;49980;-79
2023/03/24 10:02:18;;;;;;;;;2.25;0.50;;;;;;;;5073429;28;50062;-79
2023/03/24 10:04:43;;;;;;;;;3.00;2.00;;;;;;;;5068232;28;49817;-78
2023/03/24 10:07:08;;;;;;;;;3.00;2.25;;;;;;;;5073087;28;49903;-79
2023/03/24 10:09:34;;;;;;;;;0.75;0.75;;;;;;;;5072993;28;50037;-79
2023/03/24 10:12:18;;;;;;;;;0.75;0.75;;;;;;;;5070966;28;49766;-82
2023/03/24 10:14:49;;;;;;;;;3.00;2.00;;;;;;;;5051237;28;49898;-83
2023/03/24 10:17:27;;;;;;;;;1.50;1.50;;;;;;;;5072570;28;49711;-80
2023/03/24 10:19:58;;;;;;;;;4.00;1.50;;;;;;;;5068240;28;50128;-79
2023/03/24 10:22:29;;;;;;;;;0.00;0.00;;;;;;;;5050918;28;50740;-80
2023/03/24 10:25:03;;;;;;;;;2.00;1.00;;;;;;;;5069594;28;50010;-81
2023/03/24 10:27:28;;;;;;;;;3.50;2.00;;;;;;;;5051221;28;49726;-79
2023/03/24 10:29:59;;;;;;;;;2.00;0.50;;;;;;;;5069777;28;49742;-78
2023/03/24 10:32:27;;;;;;;;;2.75;2.00;;;;;;;;5073101;28;49824;-79
2023/03/24 10:35:06;;;;;;;;;2.50;2.00;;;;;;;;5069653;28;49666;-85
2023/03/24 10:37:31;;;;;;;;;3.50;1.00;;;;;;;;5054845;28;49969;-80
2023/03/24 10:39:57;;;;;;;;;2.25;1.75;;;;;;;;5069570;28;50023;-79
2023/03/24 10:42:24;;;;;;;;;3.00;0.25;;;;;;;;5069910;28;50064;-78
2023/03/24 10:44:50;;;;;;;;;3.00;1.75;;;;;;;;5047812;28;50377;-78
2023/03/24 10:47:17;;;;;;;;;1.25;0.25;;;;;;;;5055655;28;49775;-78
2023/03/24 10:50:12;;;;;;;;;0.25;0.25;;;;;;;;5050987;28;50046;-78
2023/03/24 10:52:39;;;;;;;;;2.00;0.25;;;;;;;;5042685;28;50085;-81
2023/03/24 10:55:06;;;;;;;;;1.00;0.00;;;;;;;;5051240;28;49869;-79
2023/03/24 10:57:32;;;;;;;;;1.00;1.00;;;;;;;;5056007;28;49807;-79
2023/03/24 11:00:00;;;;;;;;;2.25;1.25;;;;;;;;5055616;28;50124;-80
2023/03/24 11:02:29;;;;;;;;;3.50;2.00;;;;;;;;5051239;28;51369;-83
2023/03/24 11:04:57;;;;;;;;;0.00;0.00;;;;;;;;5053700;28;49875;-84
2023/03/24 11:07:31;;;;;;;;;1.00;1.00;;;;;;;;5055147;28;49894;-79
2023/03/24 11:09:59;;;;;;;;;1.00;1.00;;;;;;;;5054877;28;49972;-85
2023/03/24 11:12:26;;;;;;;;;6.00;2.25;;;;;;;;5053885;28;49857;-80
2023/03/24 11:14:59;;;;;;;;;0.75;0.75;;;;;;;;5060825;28;49581;-81
2023/03/24 11:17:25;;;;;;;;;1.50;1.00;;;;;;;;5059996;28;49849;-79
2023/03/24 11:19:54;;;;;;;;;4.00;2.00;;;;;;;;5059886;28;49612;-80
2023/03/24 11:22:20;;;;;;;;;3.00;3.00;;;;;;;;5061790;28;51410;-81
2023/03/24 11:24:52;;;;;;;;;4.25;1.00;;;;;;;;5062288;28;49667;-81
2023/03/24 11:27:18;;;;;;;;;1.25;1.25;;;;;;;;5057492;28;49757;-80
2023/03/24 11:29:47;;;;;;;;;0.00;0.00;;;;;;;;5054712;28;49592;-81
2023/03/24 11:32:15;;;;;;;;;3.00;2.00;;;;;;;;5055548;28;49576;-80
2023/03/24 11:34:51;;;;;;;;;2.25;0.75;;;;;;;;5052443;28;49926;-82
2023/03/24 11:37:26;;;;;;;;;1.75;1.75;;;;;;;;5053807;28;49929;-80
2023/03/24 11:40:09;;;;;;;;;0.00;0.00;;;;;;;;5060917;28;49807;-80
2023/03/24 11:42:39;;;;;;;;;0.00;0.00;;;;;;;;5042757;28;51702;-75
2023/03/24 11:45:18;;;;;;;;;1.50;0.50;;;;;;;;5066516;28;49799;-76
2023/03/24 11:47:44;;;;;;;;;1.00;1.00;;;;;;;;5062825;28;49727;-77
2023/03/24 11:50:09;;;;;;;;;3.00;2.00;;;;;;;;5076294;28;50113;-80
2023/03/24 11:52:55;;;;;;;;;3.25;1.00;;;;;;;;5078280;28;49596;-75
2023/03/24 11:55:40;;;;;;;;;2.25;1.50;;;;;;;;5074257;28;49703;-77
2023/03/24 11:58:16;;;;;;;;;1.25;1.25;;;;;;;;5071290;28;49812;-75
2023/03/24 12:00:44;;;;;;;;;1.00;1.00;;;;;;;;5071011;28;49760;-75
2023/03/24 12:03:21;;;;;;;;;1.00;1.00;;;;;;;;5071598;27;49987;-74
2023/03/24 12:05:51;;;;;;;;;2.00;1.75;;;;;;;;5052837;28;49950;-75
2023/03/24 12:08:16;;;;;;;;;1.00;0.00;;;;;;;;5084576;28;49756;-75
2023/03/24 12:11:08;;;;;;;;;1.00;1.00;;;;;;;;5089585;28;49381;-74
2023/03/24 12:13:42;;;;;;;;;1.75;1.00;;;;;;;;5067616;28;50449;-74
2023/03/24 12:16:07;;;;;;;;;2.50;0.25;;;;;;;;5088159;28;49531;-78
2023/03/24 12:18:38;;;;;;;;;0.00;0.00;;;;;;;;5087102;27;49422;-75
2023/03/24 12:21:09;;;;;;;;;0.00;0.00;;;;;;;;5089170;28;49367;-87
2023/03/24 12:23:38;;;;;;;;;0.50;0.50;;;;;;;;5087730;28;50383;-79
2023/03/24 12:26:21;;;;;;;;;1.00;1.00;;;;;;;;5081653;28;49250;-80
2023/03/24 12:29:05;;;;;;;;;3.00;1.00;;;;;;;;5087873;28;49482;-75
2023/03/24 12:31:33;;;;;;;;;0.00;0.00;;;;;;;;5088110;28;50450;-77
2023/03/24 12:34:23;;;;;;;;;0.00;0.00;;;;;;;;5087187;28;50003;-71
2023/03/24 12:36:48;;;;;;;;;0.00;0.00;;;;;;;;5081101;28;49536;-75
2023/03/24 12:39:19;;;;;;;;;0.00;0.00;;;;;;;;5087926;28;49513;-78
2023/03/24 12:41:57;;;;;;;;;0.00;0.00;;;;;;;;5070846;28;50024;-70
2023/03/24 12:44:37;;;;;;;;;0.00;0.00;;;;;;;;5086384;28;50172;-82
2023/03/24 12:47:02;;;;;;;;;0.00;0.00;;;;;;;;5068794;28;49773;-80
2023/03/24 12:49:40;;;;;;;;;0.25;0.25;;;;;;;;5086700;28;49288;-79
2023/03/24 12:52:08;;;;;;;;;1.50;1.00;;;;;;;;5067189;28;49557;-79
2023/03/24 12:54:33;;;;;;;;;1.00;0.00;;;;;;;;5086003;28;50181;-75
2023/03/24 12:57:06;;;;;;;;;2.00;2.00;;;;;;;;5082829;28;49478;-75
2023/03/24 12:59:38;;;;;;;;;1.25;0.00;;;;;;;;5086324;28;49817;-77
2023/03/24 13:02:24;;;;;;;;;1.00;1.00;;;;;;;;5085688;28;49435;-76
2023/03/24 13:04:52;;;;;;;;;4.50;1.50;;;;;;;;5085195;27;49470;-76
2023/03/24 13:07:20;;;;;;;;;2.00;1.00;;;;;;;;5086279;28;49737;-78
2023/03/24 13:09:54;;;;;;;;;1.25;1.25;;;;;;;;5085740;28;49547;-76
2023/03/24 13:12:25;;;;;;;;;1.00;1.00;;;;;;;;5066957;28;49660;-77
2023/03/24 13:14:59;;;;;;;;;1.00;0.00;;;;;;;;5085880;28;50244;-77
2023/03/24 13:17:30;;;;;;;;;3.75;2.50;;;;;;;;5085679;28;49385;-77
2023/03/24 13:19:56;;;;;;;;;2.25;1.00;;;;;;;;5085688;28;49556;-77
2023/03/24 13:22:23;;;;;;;;;1.75;0.75;;;;;;;;5086580;28;49466;-76
2023/03/24 13:24:49;;;;;;;;;1.00;1.00;;;;;;;;5085761;28;49979;-76
2023/03/24 13:27:19;;;;;;;;;1.50;1.50;;;;;;;;5086293;28;49806;-78
2023/03/24 13:29:57;;;;;;;;;1.00;1.00;;;;;;;;5085295;28;49569;-78
2023/03/24 13:32:22;;;;;;;;;2.25;1.25;;;;;;;;5086103;28;49615;-77
2023/03/24 13:34:47;;;;;;;;;0.75;0.75;;;;;;;;5085440;28;49656;-77
2023/03/24 13:37:15;;;;;;;;;0.00;0.00;;;;;;;;5086110;28;49202;-76
2023/03/24 13:39:42;;;;;;;;;0.00;0.00;;;;;;;;5067033;28;49498;-76
2023/03/24 13:42:24;;;;;;;;;1.00;0.00;;;;;;;;5085578;28;49626;-76
2023/03/24 13:44:49;;;;;;;;;0.00;0.00;;;;;;;;5067331;28;52110;-77
2023/03/24 13:47:15;;;;;;;;;4.00;1.25;;;;;;;;5085832;28;49753;-76
2023/03/24 13:49:43;;;;;;;;;1.00;0.00;;;;;;;;5084903;28;49304;-76
2023/03/24 13:52:43;;;;;;;;;0.00;0.00;;;;;;;;5085294;28;49879;-76
2023/03/24 13:55:11;;;;;;;;;0.00;0.00;;;;;;;;5051835;28;50369;-76
2023/03/24 13:57:40;;;;;;;;;1.00;1.00;;;;;;;;5085984;28;49420;-76
2023/03/24 14:00:22;;;;;;;;;1.50;1.50;;;;;;;;5084758;28;49453;-76
2023/03/24 14:02:51;;;;;;;;;1.00;0.50;;;;;;;;5085587;28;49431;-76
2023/03/24 14:05:30;;;;;;;;;1.00;1.00;;;;;;;;5085282;28;50441;-76
2023/03/24 14:08:01;;;;;;;;;0.25;0.25;;;;;;;;5085365;28;49712;-76
2023/03/24 14:10:36;;;;;;;;;0.75;0.00;;;;;;;;5086123;28;49543;-75
2023/03/24 14:13:03;;;;;;;;;0.75;0.75;;;;;;;;5085743;28;49769;-76
2023/03/24 14:15:28;;;;;;;;;1.75;0.75;;;;;;;;5084347;28;50399;-81
2023/03/24 14:17:54;;;;;;;;;1.00;0.00;;;;;;;;5086548;27;49600;-78
2023/03/24 14:20:24;;;;;;;;;0.00;0.00;;;;;;;;5066799;28;49684;-77
2023/03/24 14:22:50;;;;;;;;;1.00;0.00;;;;;;;;5070705;28;49508;-76
2023/03/24 14:25:15;;;;;;;;;0.00;0.00;;;;;;;;5088737;28;50185;-76
2023/03/24 14:27:45;;;;;;;;;0.00;0.00;;;;;;;;5088570;28;49648;-76
2023/03/24 14:30:10;;;;;;;;;0.75;0.75;;;;;;;;5088258;28;49695;-77
2023/03/24 14:32:38;;;;;;;;;1.50;1.00;;;;;;;;5088644;28;49352;-75
2023/03/24 14:35:03;;;;;;;;;2.75;0.75;;;;;;;;5068481;28;51566;-75
2023/03/24 14:37:28;;;;;;;;;0.00;0.00;;;;;;;;5087018;28;49692;-75
2023/03/24 14:39:57;;;;;;;;;0.00;0.00;;;;;;;;5069365;28;49584;-75
2023/03/24 14:42:34;;;;;;;;;0.75;0.00;;;;;;;;5087742;28;49808;-77
2023/03/24 14:45:01;;;;;;;;;0.00;0.00;;;;;;;;5086676;28;49631;-78
2023/03/24 14:47:29;;;;;;;;;1.00;0.00;;;;;;;;5086114;28;49555;-77
2023/03/24 14:49:55;;;;;;;;;0.50;0.50;;;;;;;;5086775;28;49783;-78
2023/03/24 14:52:34;;;;;;;;;2.00;0.00;;;;;;;;5087379;28;49482;-78
2023/03/24 14:55:04;;;;;;;;;1.00;0.00;;;;;;;;5085565;28;50274;-76
2023/03/24 14:57:31;;;;;;;;;1.50;0.50;;;;;;;;5083807;28;49444;-76
2023/03/24 15:00:15;;;;;;;;;1.00;1.00;;;;;;;;5068684;28;49368;-77
2023/03/24 15:02:42;;;;;;;;;2.25;1.00;;;;;;;;5086326;28;49235;-75
2023/03/24 15:05:15;;;;;;;;;1.00;0.00;;;;;;;;5086939;28;50118;-75
2023/03/24 15:07:41;;;;;;;;;1.00;0.00;;;;;;;;5084661;27;49701;-75
2023/03/24 15:10:12;;;;;;;;;1.50;0.00;;;;;;;;5086449;28;49362;-81
2023/03/24 15:12:42;;;;;;;;;1.00;0.00;;;;;;;;5087566;28;49598;-80
2023/03/24 15:15:15;;;;;;;;;0.00;0.00;;;;;;;;5087410;28;50772;-73
2023/03/24 15:17:42;;;;;;;;;0.00;0.00;;;;;;;;5066501;28;49481;-81
2023/03/24 15:20:18;;;;;;;;;0.00;0.00;;;;;;;;5069064;28;49281;-86
2023/03/24 15:22:44;;;;;;;;;2.00;0.75;;;;;;;;5089391;28;49836;-81
2023/03/24 15:25:11;;;;;;;;;0.00;0.00;;;;;;;;5078945;28;50385;-76
2023/03/24 15:27:38;;;;;;;;;2.75;1.00;;;;;;;;5071856;28;49958;-76
2023/03/24 15:30:05;;;;;;;;;1.00;0.00;;;;;;;;5057561;28;49780;-75
2023/03/24 15:32:30;;;;;;;;;2.50;0.00;;;;;;;;5070905;27;49710;-77
2023/03/24 15:34:57;;;;;;;;;0.00;0.00;;;;;;;;5069839;28;50976;-75
2023/03/24 15:37:36;;;;;;;;;1.50;1.00;;;;;;;;5069680;28;50016;-71
2023/03/24 15:40:04;;;;;;;;;2.00;0.25;;;;;;;;5070050;28;49954;-71
2023/03/24 15:42:30;;;;;;;;;0.00;0.00;;;;;;;;5071337;28;49775;-70
2023/03/24 15:45:04;;;;;;;;;1.00;1.00;;;;;;;;5070953;28;50693;-87
2023/03/24 15:47:34;;;;;;;;;1.00;0.75;;;;;;;;5055826;28;50280;-78
2023/03/24 15:50:00;;;;;;;;;1.50;0.00;;;;;;;;5077276;27;49953;-75
2023/03/24 15:52:28;;;;;;;;;4.50;2.00;;;;;;;;5076392;28;49620;-74
2023/03/24 15:54:56;;;;;;;;;0.25;0.00;;;;;;;;5076989;28;50961;-75
2023/03/24 15:57:22;;;;;;;;;1.00;1.00;;;;;;;;5076090;28;49728;-73
2023/03/24 15:59:49;;;;;;;;;1.00;0.75;;;;;;;;5071337;27;50236;-75
2023/03/24 16:02:37;;;;;;;;;0.00;0.00;;;;;;;;5071985;28;49862;-79
2023/03/24 16:05:03;;;;;;;;;2.00;0.75;;;;;;;;5053628;28;50964;-73
2023/03/24 16:07:34;;;;;;;;;1.75;1.00;;;;;;;;5073156;28;50164;-74
2023/03/24 16:10:04;;;;;;;;;0.00;0.00;;;;;;;;5072105;28;49840;-73
2023/03/24 16:12:36;;;;;;;;;2.00;0.00;;;;;;;;5086311;28;49638;-77
2023/03/24 16:15:04;;;;;;;;;0.75;0.75;;;;;;;;5087084;28;50157;-77
2023/03/24 16:17:29;;;;;;;;;2.25;1.00;;;;;;;;5088177;27;49360;-77
2023/03/24 16:19:55;;;;;;;;;0.00;0.00;;;;;;;;5085894;28;49517;-73
2023/03/24 16:22:20;;;;;;;;;1.75;0.75;;;;;;;;5065671;28;49940;-75
2023/03/24 16:24:45;;;;;;;;;1.00;1.00;;;;;;;;5075603;28;49792;-73
2023/03/24 16:27:11;;;;;;;;;1.00;0.00;;;;;;;;5074001;27;49912;-74
2023/03/24 16:29:36;;;;;;;;;0.00;0.00;;;;;;;;5071199;28;49761;-70
2023/03/24 16:32:01;;;;;;;;;2.00;0.00;;;;;;;;5071282;28;49976;-70
2023/03/24 16:34:27;;;;;;;;;0.00;0.00;;;;;;;;5062757;27;49889;-69
2023/03/24 16:36:53;;;;;;;;;1.00;0.00;;;;;;;;5066138;28;49790;-71
2023/03/24 16:39:19;;;;;;;;;0.25;0.25;;;;;;;;5073877;28;49755;-70
2023/03/24 16:41:45;;;;;;;;;2.00;2.00;;;;;;;;5071993;28;49706;-69
2023/03/24 16:44:10;;;;;;;;;1.25;0.75;;;;;;;;5070602;27;49793;-71
2023/03/24 16:46:36;;;;;;;;;1.25;1.00;;;;;;;;5074688;28;49651;-69
2023/03/24 16:49:03;;;;;;;;;2.75;0.75;;;;;;;;5072426;28;49820;-71
2023/03/24 16:51:28;;;;;;;;;1.00;0.00;;;;;;;;5071906;27;49617;-72
2023/03/24 16:53:53;;;;;;;;;0.50;0.00;;;;;;;;5066026;27;50787;-69
2023/03/24 16:56:19;;;;;;;;;2.50;0.50;;;;;;;;5071777;28;49941;-72
2023/03/24 16:58:46;;;;;;;;;2.75;0.00;;;;;;;;5072440;28;49798;-72
2023/03/24 17:01:32;;;;;;;;;1.75;1.00;;;;;;;;5068898;28;50022;-71
2023/03/24 17:04:02;;;;;;;;;1.75;1.75;;;;;;;;5052469;28;52504;-72
2023/03/24 17:06:29;;;;;;;;;1.25;1.00;;;;;;;;5052693;28;49832;-75
2023/03/24 17:08:55;;;;;;;;;1.00;1.00;;;;;;;;5073849;28;49773;-73
2023/03/24 17:11:34;;;;;;;;;3.00;3.00;;;;;;;;5079902;28;49911;-71
2023/03/24 17:14:07;;;;;;;;;1.00;1.00;;;;;;;;5078068;28;50014;-73
2023/03/24 17:16:37;;;;;;;;;0.25;0.00;;;;;;;;5068392;28;49751;-74
2023/03/24 17:19:03;;;;;;;;;0.25;0.25;;;;;;;;5070883;28;49886;-78
2023/03/24 17:21:29;;;;;;;;;1.00;1.00;;;;;;;;5052288;28;49724;-75
2023/03/24 17:23:55;;;;;;;;;0.00;0.00;;;;;;;;5070271;28;49934;-76
2023/03/24 17:26:21;;;;;;;;;1.00;0.00;;;;;;;;5051995;28;49742;-75
2023/03/24 17:28:46;;;;;;;;;0.00;0.00;;;;;;;;5051836;28;49617;-70
2023/03/24 17:31:11;;;;;;;;;2.00;0.00;;;;;;;;5070247;28;49794;-72
2023/03/24 18:22:54;;;;;;;;;0.75;0.75;;;;;;;;5283640;22;49819;-70
2023/03/24 18:25:20;;;;;;;;;0.00;0.00;;;;;;;;5045959;28;49655;-71
2023/03/24 18:27:45;;;;;;;;;0.50;0.25;;;;;;;;5051381;28;50722;-69
2023/03/24 18:30:11;;;;;;;;;0.75;0.75;;;;;;;;5051679;28;50314;-74
2023/03/24 18:32:41;;;;;;;;;3.50;2.25;;;;;;;;5050556;28;49688;-70
2023/03/24 18:35:08;;;;;;;;;1.00;1.00;;;;;;;;5050995;28;49656;-71
2023/03/24 18:37:34;;;;;;;;;0.00;0.00;;;;;;;;5050482;28;50544;-72
2023/03/24 18:42:30;;;;;;;;;0.25;0.25;;;;;;;;5329313;22;51992;-70
2023/03/24 18:44:56;;;;;;;;;2.00;0.00;;;;;;;;5051469;28;50784;-70
2023/03/24 18:47:21;;;;;;;;;0.00;0.00;;;;;;;;5050910;28;51273;-70
2023/03/24 18:49:46;;;;;;;;;1.00;1.00;;;;;;;;5040997;28;49764;-71
2023/03/24 18:52:16;;;;;;;;;0.50;0.50;;;;;;;;5051345;28;49795;-81
2023/03/24 18:54:41;;;;;;;;;1.50;0.50;;;;;;;;5050208;28;49914;-77
2023/03/24 18:57:07;;;;;;;;;0.75;0.00;;;;;;;;5049622;28;50020;-70
2023/03/24 18:59:32;;;;;;;;;1.00;1.00;;;;;;;;5050959;28;50317;-72
2023/03/24 19:01:59;;;;;;;;;2.00;0.00;;;;;;;;5051018;28;50084;-70
2023/03/24 19:04:24;;;;;;;;;0.75;0.25;;;;;;;;5050850;28;50129;-71
2023/03/24 19:06:50;;;;;;;;;3.50;0.50;;;;;;;;5048009;28;50619;-72
2023/03/24 19:09:19;;;;;;;;;1.00;1.00;;;;;;;;5050183;28;49816;-70
2023/03/24 19:11:44;;;;;;;;;2.00;2.00;;;;;;;;5050699;28;49688;-74
2023/03/24 19:14:09;;;;;;;;;1.00;0.00;;;;;;;;5051069;28;50023;-70
2023/03/24 19:16:35;;;;;;;;;1.75;0.75;;;;;;;;5050775;28;50620;-71
2023/03/24 19:19:00;;;;;;;;;1.00;0.00;;;;;;;;5050518;28;50067;-71
2023/03/24 19:21:26;;;;;;;;;1.50;0.50;;;;;;;;5050176;28;49949;-71
2023/03/24 19:23:51;;;;;;;;;1.25;1.25;;;;;;;;5050961;28;49704;-71
2023/03/24 19:26:18;;;;;;;;;0.00;0.00;;;;;;;;5050387;28;50240;-70
2023/03/24 19:28:43;;;;;;;;;0.00;0.00;;;;;;;;5050602;28;51044;-69
2023/03/24 19:31:09;;;;;;;;;1.50;1.00;;;;;;;;5041237;28;49862;-69
2023/03/24 19:33:35;;;;;;;;;1.75;0.75;;;;;;;;5050449;28;49977;-72
2023/03/24 19:36:01;;;;;;;;;0.50;0.50;;;;;;;;5050489;28;50907;-73
2023/03/24 19:38:27;;;;;;;;;1.75;0.00;;;;;;;;5050318;28;49813;-73
2023/03/24 19:40:53;;;;;;;;;0.75;0.25;;;;;;;;5050459;28;49784;-72
2023/03/24 19:43:22;;;;;;;;;2.75;1.00;;;;;;;;5050568;28;49966;-77
2023/03/24 19:45:48;;;;;;;;;0.00;0.00;;;;;;;;5050412;28;50742;-73
2023/03/24 19:48:13;;;;;;;;;0.50;0.50;;;;;;;;5048622;28;50227;-77
2023/03/24 19:50:39;;;;;;;;;0.50;0.50;;;;;;;;5046916;28;49940;-71
2023/03/24 19:53:04;;;;;;;;;2.00;0.75;;;;;;;;5046262;28;49741;-74
2023/03/24 19:55:29;;;;;;;;;1.00;0.25;;;;;;;;5050081;28;49762;-74
2023/03/24 19:57:54;;;;;;;;;0.00;0.00;;;;;;;;5050505;28;49723;-75
2023/03/24 20:00:19;;;;;;;;;1.25;1.25;;;;;;;;5050175;28;50108;-73
2023/03/24 20:02:45;;;;;;;;;0.25;0.25;;;;;;;;5050428;28;49646;-74
2023/03/24 20:05:10;;;;;;;;;0.75;0.50;;;;;;;;5050009;28;50633;-74
2023/03/24 20:07:36;;;;;;;;;0.00;0.00;;;;;;;;5049212;28;49745;-74
2023/03/24 20:10:01;;;;;;;;;1.00;1.00;;;;;;;;5027073;28;49774;-73
2023/03/24 20:12:26;;;;;;;;;0.75;0.25;;;;;;;;5050260;28;50017;-73
2023/03/24 20:14:52;;;;;;;;;1.00;1.00;;;;;;;;5048421;28;50053;-73
2023/03/24 20:17:18;;;;;;;;;2.00;0.00;;;;;;;;5050051;28;49907;-71
2023/03/24 20:19:44;;;;;;;;;1.25;1.00;;;;;;;;5045939;28;50068;-73
2023/03/24 20:22:09;;;;;;;;;1.25;1.25;;;;;;;;5022006;28;49966;-73
2023/03/24 20:24:37;;;;;;;;;0.00;0.00;;;;;;;;5049297;28;49702;-72
2023/03/24 20:27:02;;;;;;;;;0.00;0.00;;;;;;;;5049637;28;49758;-72
2023/03/24 20:29:27;;;;;;;;;0.00;0.00;;;;;;;;5049346;28;49708;-70
2023/03/24 20:31:53;;;;;;;;;0.00;0.00;;;;;;;;5048615;28;49675;-70
2023/03/24 20:34:18;;;;;;;;;0.25;0.25;;;;;;;;5049669;28;50625;-70
2023/03/24 20:36:43;;;;;;;;;0.00;0.00;;;;;;;;5049108;28;50296;-74
2023/03/24 20:39:08;;;;;;;;;0.00;0.00;;;;;;;;5049221;28;49853;-71
2023/03/24 20:41:33;;;;;;;;;0.00;0.00;;;;;;;;5049338;28;50079;-71
2023/03/24 20:43:59;;;;;;;;;1.00;0.00;;;;;;;;5048442;28;50034;-71
2023/03/24 20:46:24;;;;;;;;;0.75;0.00;;;;;;;;5048098;28;50142;-71
2023/03/24 20:48:50;;;;;;;;;0.25;0.00;;;;;;;;5049388;28;50016;-72
2023/03/24 20:51:15;;;;;;;;;0.00;0.00;;;;;;;;5049699;28;49732;-72
2023/03/24 20:53:43;;;;;;;;;0.25;0.00;;;;;;;;5048294;28;49807;-71
2023/03/24 20:56:09;;;;;;;;;0.25;0.00;;;;;;;;5048618;28;49706;-71
2023/03/24 20:58:40;;;;;;;;;0.00;0.00;;;;;;;;5049023;28;50096;-73
2023/03/24 21:01:10;;;;;;;;;0.00;0.00;;;;;;;;5048979;28;49746;-71
2023/03/24 21:03:35;;;;;;;;;0.00;0.00;;;;;;;;5048519;28;49735;-71
2023/03/24 21:06:00;;;;;;;;;0.00;0.00;;;;;;;;5048662;28;49859;-73
2023/03/24 21:08:26;;;;;;;;;0.00;0.00;;;;;;;;5049124;28;49590;-71
2023/03/24 21:10:55;;;;;;;;;0.00;0.00;;;;;;;;5049081;28;49637;-71
2023/03/24 21:13:20;;;;;;;;;0.00;0.00;;;;;;;;5048871;28;50759;-70
2023/03/24 21:15:46;;;;;;;;;0.00;0.00;;;;;;;;5048201;28;50102;-72
2023/03/24 21:18:11;;;;;;;;;0.00;0.00;;;;;;;;5048521;28;49982;-72
2023/03/24 21:20:37;;;;;;;;;1.00;1.00;;;;;;;;5048399;28;50093;-72
2023/03/24 21:23:03;;;;;;;;;0.00;0.00;;;;;;;;5047866;28;50516;-72
2023/03/24 21:25:30;;;;;;;;;0.00;0.00;;;;;;;;5047252;28;50090;-72
2023/03/24 21:27:56;;;;;;;;;0.00;0.00;;;;;;;;5046924;28;50096;-71